Aneta, North Dakota
Current Conditions -  °F | °C
As of 12:28 PM on Wednesday 26 Nov 2014 (Local Time) from KRDR Reporting Station
Few Clouds Few Clouds  
Wind Chill: -16°   Ceiling: Unl
Heat Index:   Visibility: 10mi
Dew Point: -8°   Wind: 13mph
Humidity: 66%   Direction: 10°N
Pressure: 30.45"   Gusts: NA
Location:  47.68°N, 97.99°W
Report Text: KRDR 261828Z AUTO 01011KT 10SM FEW065 M17/M22 A3045 RMK AO2
Loading
Personal Weather Stations






























Interactive Weather Map New forecast layout! Learn more

10-Day Weather Forecast

Advertisements
Track Severe Weather on mobile